sensor_id;sensor_type;location;lat;lon;timestamp;P1;durP1;ratioP1;P2;durP2;ratioP2
60588;SDS011;46421;48.610;9.334;2023-02-15T00:00:25;18.70;;;7.18;;
60588;SDS011;46421;48.610;9.334;2023-02-15T00:02:51;16.83;;;6.68;;
60588;SDS011;46421;48.610;9.334;2023-02-15T00:05:16;18.05;;;6.55;;
60588;SDS011;46421;48.610;9.334;2023-02-15T00:07:41;16.25;;;7.05;;
60588;SDS011;46421;48.610;9.334;2023-02-15T00:10:07;14.63;;;6.80;;
60588;SDS011;46421;48.610;9.334;2023-02-15T00:12:32;14.85;;;6.28;;
60588;SDS011;46421;48.610;9.334;2023-02-15T00:14:58;17.38;;;6.28;;
60588;SDS011;46421;48.610;9.334;2023-02-15T00:17:23;17.37;;;6.73;;
60588;SDS011;46421;48.610;9.334;2023-02-15T00:19:49;15.15;;;6.75;;
60588;SDS011;46421;48.610;9.334;2023-02-15T00:22:14;16.33;;;6.70;;
60588;SDS011;46421;48.610;9.334;2023-02-15T00:24:39;16.33;;;6.17;;
60588;SDS011;46421;48.610;9.334;2023-02-15T00:27:05;19.10;;;8.33;;
60588;SDS011;46421;48.610;9.334;2023-02-15T00:29:30;11.90;;;5.33;;
60588;SDS011;46421;48.610;9.334;2023-02-15T00:31:56;14.85;;;6.50;;
60588;SDS011;46421;48.610;9.334;2023-02-15T00:34:24;17.50;;;6.25;;
60588;SDS011;46421;48.610;9.334;2023-02-15T00:39:16;15.32;;;6.03;;
60588;SDS011;46421;48.610;9.334;2023-02-15T00:41:42;14.13;;;6.72;;
60588;SDS011;46421;48.610;9.334;2023-02-15T00:44:08;17.73;;;6.85;;
60588;SDS011;46421;48.610;9.334;2023-02-15T00:46:33;16.67;;;6.35;;
60588;SDS011;46421;48.610;9.334;2023-02-15T00:48:59;16.88;;;6.45;;
60588;SDS011;46421;48.610;9.334;2023-02-15T00:51:24;16.33;;;6.30;;
60588;SDS011;46421;48.610;9.334;2023-02-15T00:53:50;15.95;;;6.40;;
60588;SDS011;46421;48.610;9.334;2023-02-15T00:56:15;19.85;;;6.70;;
60588;SDS011;46421;48.610;9.334;2023-02-15T00:58:41;16.57;;;6.67;;
60588;SDS011;46421;48.610;9.334;2023-02-15T01:01:11;16.83;;;6.80;;
60588;SDS011;46421;48.610;9.334;2023-02-15T01:03:38;17.85;;;7.43;;
60588;SDS011;46421;48.610;9.334;2023-02-15T01:06:06;15.70;;;6.43;;
60588;SDS011;46421;48.610;9.334;2023-02-15T01:08:32;18.95;;;6.95;;
60588;SDS011;46421;48.610;9.334;2023-02-15T01:11:02;16.67;;;6.80;;
60588;SDS011;46421;48.610;9.334;2023-02-15T01:13:31;14.40;;;6.07;;
60588;SDS011;46421;48.610;9.334;2023-02-15T01:15:57;18.25;;;7.78;;
60588;SDS011;46421;48.610;9.334;2023-02-15T01:18:22;15.13;;;6.40;;
60588;SDS011;46421;48.610;9.334;2023-02-15T01:20:48;21.27;;;6.90;;
60588;SDS011;46421;48.610;9.334;2023-02-15T01:23:14;14.32;;;6.18;;
60588;SDS011;46421;48.610;9.334;2023-02-15T01:25:39;21.23;;;7.50;;
60588;SDS011;46421;48.610;9.334;2023-02-15T01:28:04;17.25;;;6.97;;
60588;SDS011;46421;48.610;9.334;2023-02-15T01:30:30;21.10;;;7.65;;
60588;SDS011;46421;48.610;9.334;2023-02-15T01:32:56;18.63;;;7.65;;
60588;SDS011;46421;48.610;9.334;2023-02-15T01:35:22;20.17;;;7.25;;
60588;SDS011;46421;48.610;9.334;2023-02-15T01:37:47;24.80;;;7.45;;
60588;SDS011;46421;48.610;9.334;2023-02-15T01:40:14;25.97;;;7.43;;
60588;SDS011;46421;48.610;9.334;2023-02-15T01:42:41;23.60;;;7.53;;
60588;SDS011;46421;48.610;9.334;2023-02-15T01:45:26;20.13;;;7.57;;
60588;SDS011;46421;48.610;9.334;2023-02-15T01:47:58;19.63;;;7.72;;
60588;SDS011;46421;48.610;9.334;2023-02-15T01:51:00;22.02;;;6.88;;
60588;SDS011;46421;48.610;9.334;2023-02-15T01:53:24;16.05;;;6.18;;
60588;SDS011;46421;48.610;9.334;2023-02-15T01:55:59;16.60;;;6.32;;
60588;SDS011;46421;48.610;9.334;2023-02-15T01:58:29;18.05;;;6.88;;
60588;SDS011;46421;48.610;9.334;2023-02-15T02:00:55;16.02;;;6.85;;
60588;SDS011;46421;48.610;9.334;2023-02-15T02:03:27;16.42;;;6.82;;
60588;SDS011;46421;48.610;9.334;2023-02-15T02:06:03;16.20;;;6.00;;
60588;SDS011;46421;48.610;9.334;2023-02-15T02:08:29;13.55;;;5.05;;
60588;SDS011;46421;48.610;9.334;2023-02-15T02:10:55;14.43;;;5.65;;
60588;SDS011;46421;48.610;9.334;2023-02-15T02:13:20;13.85;;;5.32;;
60588;SDS011;46421;48.610;9.334;2023-02-15T02:15:49;15.90;;;6.27;;
60588;SDS011;46421;48.610;9.334;2023-02-15T02:21:40;16.88;;;6.55;;
60588;SDS011;46421;48.610;9.334;2023-02-15T02:24:11;18.00;;;5.97;;
60588;SDS011;46421;48.610;9.334;2023-02-15T02:26:47;11.57;;;4.75;;
60588;SDS011;46421;48.610;9.334;2023-02-15T02:35:11;15.02;;;5.32;;
60588;SDS011;46421;48.610;9.334;2023-02-15T02:38:00;12.52;;;5.35;;
60588;SDS011;46421;48.610;9.334;2023-02-15T02:46:39;13.57;;;4.95;;
60588;SDS011;46421;48.610;9.334;2023-02-15T02:49:07;12.18;;;5.07;;
60588;SDS011;46421;48.610;9.334;2023-02-15T02:51:33;13.32;;;6.00;;
60588;SDS011;46421;48.610;9.334;2023-02-15T02:53:59;13.97;;;5.57;;
60588;SDS011;46421;48.610;9.334;2023-02-15T02:56:32;14.30;;;5.22;;
60588;SDS011;46421;48.610;9.334;2023-02-15T03:01:45;14.43;;;6.03;;
60588;SDS011;46421;48.610;9.334;2023-02-15T03:04:19;15.20;;;6.15;;
60588;SDS011;46421;48.610;9.334;2023-02-15T03:06:53;16.10;;;6.15;;
60588;SDS011;46421;48.610;9.334;2023-02-15T03:09:26;14.85;;;5.40;;
60588;SDS011;46421;48.610;9.334;2023-02-15T03:11:59;12.68;;;5.78;;
60588;SDS011;46421;48.610;9.334;2023-02-15T03:14:25;16.20;;;6.10;;
60588;SDS011;46421;48.610;9.334;2023-02-15T03:16:51;10.57;;;4.45;;
60588;SDS011;46421;48.610;9.334;2023-02-15T03:19:19;16.33;;;5.88;;
60588;SDS011;46421;48.610;9.334;2023-02-15T03:21:50;13.63;;;5.82;;
60588;SDS011;46421;48.610;9.334;2023-02-15T03:24:24;14.52;;;6.05;;
60588;SDS011;46421;48.610;9.334;2023-02-15T03:26:54;16.10;;;5.70;;
60588;SDS011;46421;48.610;9.334;2023-02-15T03:29:24;12.38;;;5.32;;
60588;SDS011;46421;48.610;9.334;2023-02-15T03:31:53;14.43;;;5.60;;
60588;SDS011;46421;48.610;9.334;2023-02-15T03:34:23;13.70;;;5.53;;
60588;SDS011;46421;48.610;9.334;2023-02-15T03:36:56;12.13;;;5.88;;
60588;SDS011;46421;48.610;9.334;2023-02-15T03:39:33;15.73;;;5.32;;
60588;SDS011;46421;48.610;9.334;2023-02-15T03:47:34;17.60;;;6.97;;
60588;SDS011;46421;48.610;9.334;2023-02-15T03:50:15;18.20;;;7.03;;
60588;SDS011;46421;48.610;9.334;2023-02-15T03:53:05;17.50;;;6.90;;
60588;SDS011;46421;48.610;9.334;2023-02-15T03:55:34;22.00;;;6.78;;
60588;SDS011;46421;48.610;9.334;2023-02-15T03:58:00;22.33;;;7.07;;
60588;SDS011;46421;48.610;9.334;2023-02-15T04:00:48;23.05;;;8.07;;
60588;SDS011;46421;48.610;9.334;2023-02-15T04:03:45;24.60;;;7.13;;
60588;SDS011;46421;48.610;9.334;2023-02-15T04:06:28;18.98;;;6.18;;
60588;SDS011;46421;48.610;9.334;2023-02-15T04:08:53;21.40;;;7.37;;
60588;SDS011;46421;48.610;9.334;2023-02-15T04:11:37;16.05;;;6.63;;
60588;SDS011;46421;48.610;9.334;2023-02-15T04:14:02;22.30;;;7.77;;
60588;SDS011;46421;48.610;9.334;2023-02-15T04:16:48;21.45;;;7.03;;
60588;SDS011;46421;48.610;9.334;2023-02-15T04:19:13;20.03;;;7.10;;
60588;SDS011;46421;48.610;9.334;2023-02-15T04:21:57;19.50;;;6.50;;
60588;SDS011;46421;48.610;9.334;2023-02-15T04:24:41;20.63;;;7.63;;
60588;SDS011;46421;48.610;9.334;2023-02-15T04:27:24;19.75;;;6.63;;
60588;SDS011;46421;48.610;9.334;2023-02-15T04:29:50;16.80;;;5.53;;
60588;SDS011;46421;48.610;9.334;2023-02-15T04:32:15;17.10;;;5.83;;
60588;SDS011;46421;48.610;9.334;2023-02-15T04:34:41;22.23;;;7.03;;
60588;SDS011;46421;48.610;9.334;2023-02-15T04:37:06;19.10;;;7.07;;
60588;SDS011;46421;48.610;9.334;2023-02-15T04:39:31;15.55;;;5.60;;
60588;SDS011;46421;48.610;9.334;2023-02-15T04:41:57;22.17;;;6.82;;
60588;SDS011;46421;48.610;9.334;2023-02-15T04:44:22;19.08;;;6.65;;
60588;SDS011;46421;48.610;9.334;2023-02-15T04:46:47;20.23;;;6.73;;
60588;SDS011;46421;48.610;9.334;2023-02-15T04:49:14;15.53;;;6.63;;
60588;SDS011;46421;48.610;9.334;2023-02-15T04:51:39;14.57;;;5.25;;
60588;SDS011;46421;48.610;9.334;2023-02-15T04:54:05;14.05;;;5.82;;
60588;SDS011;46421;48.610;9.334;2023-02-15T04:56:30;18.45;;;6.70;;
60588;SDS011;46421;48.610;9.334;2023-02-15T05:01:23;11.73;;;4.73;;
60588;SDS011;46421;48.610;9.334;2023-02-15T05:03:48;14.32;;;5.63;;
60588;SDS011;46421;48.610;9.334;2023-02-15T05:06:14;19.25;;;5.90;;
60588;SDS011;46421;48.610;9.334;2023-02-15T05:08:39;11.80;;;4.60;;
60588;SDS011;46421;48.610;9.334;2023-02-15T05:11:04;15.83;;;6.73;;
60588;SDS011;46421;48.610;9.334;2023-02-15T05:13:29;19.50;;;6.67;;
60588;SDS011;46421;48.610;9.334;2023-02-15T05:15:55;14.00;;;5.85;;
60588;SDS011;46421;48.610;9.334;2023-02-15T05:18:21;13.40;;;5.70;;
60588;SDS011;46421;48.610;9.334;2023-02-15T05:20:46;16.90;;;6.95;;
60588;SDS011;46421;48.610;9.334;2023-02-15T05:23:13;18.58;;;6.70;;
60588;SDS011;46421;48.610;9.334;2023-02-15T05:25:38;16.38;;;6.05;;
60588;SDS011;46421;48.610;9.334;2023-02-15T05:28:23;11.27;;;5.32;;
60588;SDS011;46421;48.610;9.334;2023-02-15T05:30:57;20.23;;;6.05;;
60588;SDS011;46421;48.610;9.334;2023-02-15T05:33:26;16.85;;;6.85;;
60588;SDS011;46421;48.610;9.334;2023-02-15T05:35:51;13.17;;;5.67;;
60588;SDS011;46421;48.610;9.334;2023-02-15T05:38:17;15.88;;;6.22;;
60588;SDS011;46421;48.610;9.334;2023-02-15T05:40:42;12.57;;;6.03;;
60588;SDS011;46421;48.610;9.334;2023-02-15T05:43:08;17.60;;;6.80;;
60588;SDS011;46421;48.610;9.334;2023-02-15T05:45:33;17.77;;;6.23;;
60588;SDS011;46421;48.610;9.334;2023-02-15T05:47:58;16.97;;;6.17;;
60588;SDS011;46421;48.610;9.334;2023-02-15T05:50:24;15.25;;;6.28;;
60588;SDS011;46421;48.610;9.334;2023-02-15T05:52:50;15.93;;;6.20;;
60588;SDS011;46421;48.610;9.334;2023-02-15T05:55:15;14.80;;;6.68;;
60588;SDS011;46421;48.610;9.334;2023-02-15T05:57:41;16.93;;;6.03;;
60588;SDS011;46421;48.610;9.334;2023-02-15T06:00:06;18.25;;;5.97;;
60588;SDS011;46421;48.610;9.334;2023-02-15T06:02:34;16.23;;;5.43;;
60588;SDS011;46421;48.610;9.334;2023-02-15T06:05:00;18.85;;;6.18;;
60588;SDS011;46421;48.610;9.334;2023-02-15T06:07:25;14.40;;;5.72;;
60588;SDS011;46421;48.610;9.334;2023-02-15T06:09:50;17.70;;;7.43;;
60588;SDS011;46421;48.610;9.334;2023-02-15T06:12:16;13.93;;;6.13;;
60588;SDS011;46421;48.610;9.334;2023-02-15T06:14:41;14.93;;;5.70;;
60588;SDS011;46421;48.610;9.334;2023-02-15T06:17:06;14.30;;;5.40;;
60588;SDS011;46421;48.610;9.334;2023-02-15T06:19:32;14.07;;;4.30;;
60588;SDS011;46421;48.610;9.334;2023-02-15T06:21:57;16.23;;;6.37;;
60588;SDS011;46421;48.610;9.334;2023-02-15T06:24:22;13.57;;;5.50;;
60588;SDS011;46421;48.610;9.334;2023-02-15T06:26:48;13.25;;;5.75;;
60588;SDS011;46421;48.610;9.334;2023-02-15T06:29:13;16.33;;;5.37;;
60588;SDS011;46421;48.610;9.334;2023-02-15T06:31:39;16.10;;;5.63;;
60588;SDS011;46421;48.610;9.334;2023-02-15T06:34:04;12.73;;;5.30;;
60588;SDS011;46421;48.610;9.334;2023-02-15T06:36:30;13.55;;;5.20;;
60588;SDS011;46421;48.610;9.334;2023-02-15T06:38:55;11.48;;;5.25;;
60588;SDS011;46421;48.610;9.334;2023-02-15T06:41:21;14.35;;;5.15;;
60588;SDS011;46421;48.610;9.334;2023-02-15T06:43:46;12.18;;;5.03;;
60588;SDS011;46421;48.610;9.334;2023-02-15T06:46:12;17.47;;;6.30;;
60588;SDS011;46421;48.610;9.334;2023-02-15T06:48:37;14.37;;;5.23;;
60588;SDS011;46421;48.610;9.334;2023-02-15T06:51:03;12.27;;;5.20;;
60588;SDS011;46421;48.610;9.334;2023-02-15T06:53:28;14.20;;;5.57;;
60588;SDS011;46421;48.610;9.334;2023-02-15T06:56:03;12.52;;;5.32;;
60588;SDS011;46421;48.610;9.334;2023-02-15T06:58:40;11.27;;;5.10;;
60588;SDS011;46421;48.610;9.334;2023-02-15T07:01:06;14.07;;;5.97;;
60588;SDS011;46421;48.610;9.334;2023-02-15T07:03:33;14.52;;;5.93;;
60588;SDS011;46421;48.610;9.334;2023-02-15T07:06:00;14.82;;;5.18;;
60588;SDS011;46421;48.610;9.334;2023-02-15T07:08:27;15.98;;;5.50;;
60588;SDS011;46421;48.610;9.334;2023-02-15T07:10:53;13.57;;;5.05;;
60588;SDS011;46421;48.610;9.334;2023-02-15T07:13:19;11.10;;;5.40;;
60588;SDS011;46421;48.610;9.334;2023-02-15T07:15:45;13.00;;;4.53;;
60588;SDS011;46421;48.610;9.334;2023-02-15T07:18:12;12.45;;;5.30;;
60588;SDS011;46421;48.610;9.334;2023-02-15T07:20:39;17.63;;;6.13;;
60588;SDS011;46421;48.610;9.334;2023-02-15T07:23:07;14.88;;;6.43;;
60588;SDS011;46421;48.610;9.334;2023-02-15T07:25:33;14.35;;;6.20;;
60588;SDS011;46421;48.610;9.334;2023-02-15T07:27:59;13.02;;;5.30;;
60588;SDS011;46421;48.610;9.334;2023-02-15T07:30:26;13.32;;;6.20;;
60588;SDS011;46421;48.610;9.334;2023-02-15T07:32:58;13.60;;;6.65;;
60588;SDS011;46421;48.610;9.334;2023-02-15T07:35:46;15.80;;;7.28;;
60588;SDS011;46421;48.610;9.334;2023-02-15T07:38:14;14.10;;;5.90;;
60588;SDS011;46421;48.610;9.334;2023-02-15T07:40:40;15.75;;;6.47;;
60588;SDS011;46421;48.610;9.334;2023-02-15T07:43:06;18.00;;;6.78;;
60588;SDS011;46421;48.610;9.334;2023-02-15T07:45:31;15.63;;;6.43;;
60588;SDS011;46421;48.610;9.334;2023-02-15T07:47:56;16.48;;;6.85;;
60588;SDS011;46421;48.610;9.334;2023-02-15T07:50:22;16.70;;;7.13;;
60588;SDS011;46421;48.610;9.334;2023-02-15T07:52:47;14.63;;;6.47;;
60588;SDS011;46421;48.610;9.334;2023-02-15T07:55:12;14.93;;;6.85;;
60588;SDS011;46421;48.610;9.334;2023-02-15T07:57:42;13.23;;;6.60;;
60588;SDS011;46421;48.610;9.334;2023-02-15T08:00:09;17.02;;;7.65;;
60588;SDS011;46421;48.610;9.334;2023-02-15T08:02:36;16.27;;;7.55;;
60588;SDS011;46421;48.610;9.334;2023-02-15T08:05:02;24.00;;;11.98;;
60588;SDS011;46421;48.610;9.334;2023-02-15T08:07:27;19.80;;;9.02;;
60588;SDS011;46421;48.610;9.334;2023-02-15T08:09:52;19.25;;;8.85;;
60588;SDS011;46421;48.610;9.334;2023-02-15T08:12:18;15.18;;;8.25;;
60588;SDS011;46421;48.610;9.334;2023-02-15T08:14:44;17.23;;;8.55;;
60588;SDS011;46421;48.610;9.334;2023-02-15T08:17:09;19.33;;;8.73;;
60588;SDS011;46421;48.610;9.334;2023-02-15T08:19:34;20.08;;;8.73;;
60588;SDS011;46421;48.610;9.334;2023-02-15T08:22:04;15.95;;;7.57;;
60588;SDS011;46421;48.610;9.334;2023-02-15T08:24:32;15.77;;;9.52;;
60588;SDS011;46421;48.610;9.334;2023-02-15T08:27:02;17.70;;;8.60;;
60588;SDS011;46421;48.610;9.334;2023-02-15T08:29:29;15.77;;;8.35;;
60588;SDS011;46421;48.610;9.334;2023-02-15T08:31:59;17.17;;;9.35;;
60588;SDS011;46421;48.610;9.334;2023-02-15T08:34:30;16.20;;;9.02;;
60588;SDS011;46421;48.610;9.334;2023-02-15T08:36:58;19.10;;;9.68;;
60588;SDS011;46421;48.610;9.334;2023-02-15T08:39:23;19.33;;;9.88;;
60588;SDS011;46421;48.610;9.334;2023-02-15T08:41:49;18.95;;;10.48;;
60588;SDS011;46421;48.610;9.334;2023-02-15T08:44:15;18.98;;;9.65;;
60588;SDS011;46421;48.610;9.334;2023-02-15T08:46:43;18.20;;;9.77;;
60588;SDS011;46421;48.610;9.334;2023-02-15T08:49:11;18.75;;;10.27;;
60588;SDS011;46421;48.610;9.334;2023-02-15T08:51:38;18.45;;;9.70;;
60588;SDS011;46421;48.610;9.334;2023-02-15T08:54:05;21.48;;;10.93;;
60588;SDS011;46421;48.610;9.334;2023-02-15T08:56:34;18.40;;;10.00;;
60588;SDS011;46421;48.610;9.334;2023-02-15T08:59:01;17.58;;;9.80;;
60588;SDS011;46421;48.610;9.334;2023-02-15T09:01:28;18.35;;;10.10;;
60588;SDS011;46421;48.610;9.334;2023-02-15T09:03:56;17.38;;;9.25;;
60588;SDS011;46421;48.610;9.334;2023-02-15T09:06:26;17.92;;;9.98;;
60588;SDS011;46421;48.610;9.334;2023-02-15T09:08:52;18.08;;;10.05;;
60588;SDS011;46421;48.610;9.334;2023-02-15T09:11:22;16.92;;;9.80;;
60588;SDS011;46421;48.610;9.334;2023-02-15T09:13:59;17.98;;;10.35;;
60588;SDS011;46421;48.610;9.334;2023-02-15T09:16:30;18.10;;;10.90;;
60588;SDS011;46421;48.610;9.334;2023-02-15T09:18:57;18.52;;;10.63;;
60588;SDS011;46421;48.610;9.334;2023-02-15T09:21:24;17.25;;;10.07;;
60588;SDS011;46421;48.610;9.334;2023-02-15T09:23:51;18.80;;;11.05;;
60588;SDS011;46421;48.610;9.334;2023-02-15T09:26:20;18.05;;;10.90;;
60588;SDS011;46421;48.610;9.334;2023-02-15T09:28:47;17.95;;;10.65;;
60588;SDS011;46421;48.610;9.334;2023-02-15T09:31:17;20.48;;;12.30;;
60588;SDS011;46421;48.610;9.334;2023-02-15T09:33:44;18.13;;;11.52;;
60588;SDS011;46421;48.610;9.334;2023-02-15T09:38:44;15.75;;;10.40;;
60588;SDS011;46421;48.610;9.334;2023-02-15T09:41:19;17.27;;;10.55;;
60588;SDS011;46421;48.610;9.334;2023-02-15T09:50:12;15.45;;;9.93;;
60588;SDS011;46421;48.610;9.334;2023-02-15T09:55:58;15.75;;;10.38;;
60588;SDS011;46421;48.610;9.334;2023-02-15T10:03:51;15.88;;;9.32;;
60588;SDS011;46421;48.610;9.334;2023-02-15T10:06:36;15.90;;;9.70;;
60588;SDS011;46421;48.610;9.334;2023-02-15T10:09:11;14.02;;;9.07;;
60588;SDS011;46421;48.610;9.334;2023-02-15T10:11:47;15.13;;;10.07;;
60588;SDS011;46421;48.610;9.334;2023-02-15T10:17:23;14.25;;;8.73;;
60588;SDS011;46421;48.610;9.334;2023-02-15T10:20:08;15.02;;;9.40;;
60588;SDS011;46421;48.610;9.334;2023-02-15T10:25:32;14.32;;;9.57;;
60588;SDS011;46421;48.610;9.334;2023-02-15T10:28:06;14.85;;;10.38;;
60588;SDS011;46421;48.610;9.334;2023-02-15T10:30:48;14.82;;;9.15;;
60588;SDS011;46421;48.610;9.334;2023-02-15T10:38:40;15.73;;;9.52;;
60588;SDS011;46421;48.610;9.334;2023-02-15T10:41:17;14.57;;;9.15;;
60588;SDS011;46421;48.610;9.334;2023-02-15T10:43:52;15.10;;;9.00;;
60588;SDS011;46421;48.610;9.334;2023-02-15T10:49:33;16.48;;;9.60;;
60588;SDS011;46421;48.610;9.334;2023-02-15T10:52:21;13.70;;;9.27;;
60588;SDS011;46421;48.610;9.334;2023-02-15T10:55:02;16.45;;;9.02;;
60588;SDS011;46421;48.610;9.334;2023-02-15T11:00:29;14.20;;;8.98;;
60588;SDS011;46421;48.610;9.334;2023-02-15T11:03:46;16.02;;;9.77;;
60588;SDS011;46421;48.610;9.334;2023-02-15T11:06:09;14.25;;;10.20;;
60588;SDS011;46421;48.610;9.334;2023-02-15T11:08:39;16.27;;;9.68;;
60588;SDS011;46421;48.610;9.334;2023-02-15T11:11:10;14.48;;;8.55;;
60588;SDS011;46421;48.610;9.334;2023-02-15T11:13:41;14.10;;;10.02;;
60588;SDS011;46421;48.610;9.334;2023-02-15T11:18:59;13.20;;;9.43;;
60588;SDS011;46421;48.610;9.334;2023-02-15T11:21:36;15.60;;;9.60;;
60588;SDS011;46421;48.610;9.334;2023-02-15T11:24:09;14.88;;;9.70;;
60588;SDS011;46421;48.610;9.334;2023-02-15T11:26:43;15.40;;;9.15;;
60588;SDS011;46421;48.610;9.334;2023-02-15T11:29:27;15.07;;;9.73;;
60588;SDS011;46421;48.610;9.334;2023-02-15T11:32:18;14.98;;;10.00;;
60588;SDS011;46421;48.610;9.334;2023-02-15T11:37:29;14.45;;;10.48;;
60588;SDS011;46421;48.610;9.334;2023-02-15T11:40:01;18.08;;;10.57;;
60588;SDS011;46421;48.610;9.334;2023-02-15T11:42:31;17.45;;;10.65;;
60588;SDS011;46421;48.610;9.334;2023-02-15T11:47:55;14.93;;;9.82;;
60588;SDS011;46421;48.610;9.334;2023-02-15T11:50:23;16.70;;;10.18;;
60588;SDS011;46421;48.610;9.334;2023-02-15T11:52:51;16.40;;;10.68;;
60588;SDS011;46421;48.610;9.334;2023-02-15T11:55:21;12.93;;;8.88;;
60588;SDS011;46421;48.610;9.334;2023-02-15T11:57:51;14.45;;;9.65;;
60588;SDS011;46421;48.610;9.334;2023-02-15T12:00:24;14.15;;;10.95;;
60588;SDS011;46421;48.610;9.334;2023-02-15T12:05:40;14.35;;;8.93;;
60588;SDS011;46421;48.610;9.334;2023-02-15T12:08:12;14.80;;;9.95;;
60588;SDS011;46421;48.610;9.334;2023-02-15T12:10:57;17.20;;;10.30;;
60588;SDS011;46421;48.610;9.334;2023-02-15T12:13:27;14.23;;;9.68;;
60588;SDS011;46421;48.610;9.334;2023-02-15T12:15:54;14.65;;;9.32;;
60588;SDS011;46421;48.610;9.334;2023-02-15T12:18:38;14.45;;;10.52;;
60588;SDS011;46421;48.610;9.334;2023-02-15T12:21:10;15.13;;;9.65;;
60588;SDS011;46421;48.610;9.334;2023-02-15T12:23:43;13.20;;;9.43;;
60588;SDS011;46421;48.610;9.334;2023-02-15T12:26:37;19.55;;;9.25;;
60588;SDS011;46421;48.610;9.334;2023-02-15T12:29:12;13.73;;;8.70;;
60588;SDS011;46421;48.610;9.334;2023-02-15T12:31:44;13.88;;;9.10;;
60588;SDS011;46421;48.610;9.334;2023-02-15T12:34:13;14.07;;;9.18;;
60588;SDS011;46421;48.610;9.334;2023-02-15T12:36:56;12.02;;;8.25;;
60588;SDS011;46421;48.610;9.334;2023-02-15T12:39:27;14.93;;;8.45;;
60588;SDS011;46421;48.610;9.334;2023-02-15T12:44:21;15.20;;;7.65;;
60588;SDS011;46421;48.610;9.334;2023-02-15T12:47:00;12.35;;;7.47;;
60588;SDS011;46421;48.610;9.334;2023-02-15T12:49:41;11.98;;;7.38;;
60588;SDS011;46421;48.610;9.334;2023-02-15T12:54:45;12.73;;;7.38;;
60588;SDS011;46421;48.610;9.334;2023-02-15T12:57:13;17.13;;;7.03;;
60588;SDS011;46421;48.610;9.334;2023-02-15T12:59:49;12.45;;;7.63;;
60588;SDS011;46421;48.610;9.334;2023-02-15T13:02:19;14.20;;;7.43;;
60588;SDS011;46421;48.610;9.334;2023-02-15T13:04:48;12.57;;;7.70;;
60588;SDS011;46421;48.610;9.334;2023-02-15T13:07:14;14.77;;;7.10;;
60588;SDS011;46421;48.610;9.334;2023-02-15T13:09:39;12.60;;;7.78;;
60588;SDS011;46421;48.610;9.334;2023-02-15T13:12:16;11.48;;;6.55;;
60588;SDS011;46421;48.610;9.334;2023-02-15T13:14:46;12.15;;;6.75;;
60588;SDS011;46421;48.610;9.334;2023-02-15T13:17:16;11.43;;;6.65;;
60588;SDS011;46421;48.610;9.334;2023-02-15T13:19:49;11.02;;;6.15;;
60588;SDS011;46421;48.610;9.334;2023-02-15T13:22:27;10.45;;;6.03;;
60588;SDS011;46421;48.610;9.334;2023-02-15T13:25:04;10.95;;;6.03;;
60588;SDS011;46421;48.610;9.334;2023-02-15T13:27:38;11.50;;;6.53;;
60588;SDS011;46421;48.610;9.334;2023-02-15T13:30:27;11.65;;;6.53;;
60588;SDS011;46421;48.610;9.334;2023-02-15T13:33:01;12.40;;;6.40;;
60588;SDS011;46421;48.610;9.334;2023-02-15T13:35:33;11.85;;;6.00;;
60588;SDS011;46421;48.610;9.334;2023-02-15T13:38:09;13.15;;;6.22;;
60588;SDS011;46421;48.610;9.334;2023-02-15T13:40:48;11.52;;;6.05;;
60588;SDS011;46421;48.610;9.334;2023-02-15T13:46:21;12.38;;;5.90;;
60588;SDS011;46421;48.610;9.334;2023-02-15T13:49:14;10.98;;;5.95;;
60588;SDS011;46421;48.610;9.334;2023-02-15T13:57:38;10.85;;;4.80;;
60588;SDS011;46421;48.610;9.334;2023-02-15T14:11:27;8.38;;;4.43;;
60588;SDS011;46421;48.610;9.334;2023-02-15T14:17:11;8.85;;;4.47;;
60588;SDS011;46421;48.610;9.334;2023-02-15T14:25:12;11.15;;;4.00;;
60588;SDS011;46421;48.610;9.334;2023-02-15T14:30:58;8.75;;;4.13;;
60588;SDS011;46421;48.610;9.334;2023-02-15T14:36:20;8.35;;;4.28;;
60588;SDS011;46421;48.610;9.334;2023-02-15T14:41:59;9.75;;;4.40;;
60588;SDS011;46421;48.610;9.334;2023-02-15T14:44:36;10.05;;;4.78;;
60588;SDS011;46421;48.610;9.334;2023-02-15T14:47:27;7.60;;;3.80;;
60588;SDS011;46421;48.610;9.334;2023-02-15T14:49:58;9.23;;;4.22;;
60588;SDS011;46421;48.610;9.334;2023-02-15T14:52:23;8.52;;;4.10;;
60588;SDS011;46421;48.610;9.334;2023-02-15T14:59:41;7.57;;;3.37;;
60588;SDS011;46421;48.610;9.334;2023-02-15T15:02:24;6.95;;;3.80;;
60588;SDS011;46421;48.610;9.334;2023-02-15T15:07:41;5.85;;;2.67;;
60588;SDS011;46421;48.610;9.334;2023-02-15T15:12:57;6.97;;;3.17;;
60588;SDS011;46421;48.610;9.334;2023-02-15T15:25:43;6.10;;;2.78;;
60588;SDS011;46421;48.610;9.334;2023-02-15T15:30:58;8.75;;;3.17;;
60588;SDS011;46421;48.610;9.334;2023-02-15T15:36:27;7.45;;;2.75;;
60588;SDS011;46421;48.610;9.334;2023-02-15T15:39:15;6.00;;;2.70;;
60588;SDS011;46421;48.610;9.334;2023-02-15T15:42:06;6.78;;;2.92;;
60588;SDS011;46421;48.610;9.334;2023-02-15T15:47:33;6.25;;;3.00;;
60588;SDS011;46421;48.610;9.334;2023-02-15T15:50:24;8.30;;;3.25;;
60588;SDS011;46421;48.610;9.334;2023-02-15T15:52:51;8.60;;;3.25;;
60588;SDS011;46421;48.610;9.334;2023-02-15T15:55:22;8.02;;;3.38;;
60588;SDS011;46421;48.610;9.334;2023-02-15T15:57:51;7.43;;;3.22;;
60588;SDS011;46421;48.610;9.334;2023-02-15T16:02:59;7.18;;;3.63;;
60588;SDS011;46421;48.610;9.334;2023-02-15T16:05:24;9.07;;;3.38;;
60588;SDS011;46421;48.610;9.334;2023-02-15T16:07:50;7.77;;;3.43;;
60588;SDS011;46421;48.610;9.334;2023-02-15T16:10:25;8.63;;;3.60;;
60588;SDS011;46421;48.610;9.334;2023-02-15T16:12:52;10.23;;;3.53;;
60588;SDS011;46421;48.610;9.334;2023-02-15T16:15:20;8.30;;;3.92;;
60588;SDS011;46421;48.610;9.334;2023-02-15T16:17:52;8.60;;;3.45;;
60588;SDS011;46421;48.610;9.334;2023-02-15T16:20:33;7.82;;;3.75;;
60588;SDS011;46421;48.610;9.334;2023-02-15T16:25:45;11.60;;;4.17;;
60588;SDS011;46421;48.610;9.334;2023-02-15T16:28:20;7.95;;;3.60;;
60588;SDS011;46421;48.610;9.334;2023-02-15T16:30:45;9.73;;;3.65;;
60588;SDS011;46421;48.610;9.334;2023-02-15T16:33:12;7.80;;;3.75;;
60588;SDS011;46421;48.610;9.334;2023-02-15T16:35:53;8.85;;;3.45;;
60588;SDS011;46421;48.610;9.334;2023-02-15T16:41:07;7.55;;;3.45;;
60588;SDS011;46421;48.610;9.334;2023-02-15T16:43:35;9.65;;;3.85;;
60588;SDS011;46421;48.610;9.334;2023-02-15T16:46:06;10.70;;;4.40;;
60588;SDS011;46421;48.610;9.334;2023-02-15T16:48:37;12.50;;;5.13;;
60588;SDS011;46421;48.610;9.334;2023-02-15T16:51:26;11.57;;;4.70;;
60588;SDS011;46421;48.610;9.334;2023-02-15T16:53:54;9.75;;;4.43;;
60588;SDS011;46421;48.610;9.334;2023-02-15T16:56:22;10.10;;;4.63;;
60588;SDS011;46421;48.610;9.334;2023-02-15T16:58:50;11.48;;;4.57;;
60588;SDS011;46421;48.610;9.334;2023-02-15T17:01:17;7.45;;;3.72;;
60588;SDS011;46421;48.610;9.334;2023-02-15T17:03:47;11.93;;;4.35;;
60588;SDS011;46421;48.610;9.334;2023-02-15T17:08:51;6.25;;;2.75;;
60588;SDS011;46421;48.610;9.334;2023-02-15T17:11:18;7.28;;;3.70;;
60588;SDS011;46421;48.610;9.334;2023-02-15T17:16:31;11.68;;;4.43;;
60588;SDS011;46421;48.610;9.334;2023-02-15T17:18:59;9.35;;;4.05;;
60588;SDS011;46421;48.610;9.334;2023-02-15T17:21:33;14.77;;;4.57;;
60588;SDS011;46421;48.610;9.334;2023-02-15T17:24:05;10.38;;;5.18;;
60588;SDS011;46421;48.610;9.334;2023-02-15T17:26:34;11.95;;;4.95;;
60588;SDS011;46421;48.610;9.334;2023-02-15T17:29:09;9.38;;;4.35;;
60588;SDS011;46421;48.610;9.334;2023-02-15T17:31:45;9.50;;;4.10;;
60588;SDS011;46421;48.610;9.334;2023-02-15T17:34:41;8.98;;;3.53;;